sensor_id;sensor_type;location;lat;lon;timestamp;P1;durP1;ratioP1;P2;durP2;ratioP2
9256;SDS011;4665;51.368;6.782;2023-04-25T00:00:30;16.73;;;6.93;;
9256;SDS011;4665;51.368;6.782;2023-04-25T00:02:55;14.30;;;7.00;;
9256;SDS011;4665;51.368;6.782;2023-04-25T00:05:21;10.73;;;6.03;;
9256;SDS011;4665;51.368;6.782;2023-04-25T00:07:48;16.10;;;6.63;;
9256;SDS011;4665;51.368;6.782;2023-04-25T00:10:14;11.47;;;6.57;;
9256;SDS011;4665;51.368;6.782;2023-04-25T00:12:40;13.83;;;6.43;;
9256;SDS011;4665;51.368;6.782;2023-04-25T00:15:06;11.83;;;5.70;;
9256;SDS011;4665;51.368;6.782;2023-04-25T00:17:32;10.17;;;5.20;;
9256;SDS011;4665;51.368;6.782;2023-04-25T00:19:59;13.83;;;5.20;;
9256;SDS011;4665;51.368;6.782;2023-04-25T00:22:25;10.50;;;4.93;;
9256;SDS011;4665;51.368;6.782;2023-04-25T00:24:50;11.43;;;5.63;;
9256;SDS011;4665;51.368;6.782;2023-04-25T00:27:18;13.13;;;4.90;;
9256;SDS011;4665;51.368;6.782;2023-04-25T00:29:43;13.47;;;5.40;;
9256;SDS011;4665;51.368;6.782;2023-04-25T00:32:09;10.43;;;4.57;;
9256;SDS011;4665;51.368;6.782;2023-04-25T00:34:34;9.97;;;4.47;;
9256;SDS011;4665;51.368;6.782;2023-04-25T00:37:00;11.27;;;4.87;;
9256;SDS011;4665;51.368;6.782;2023-04-25T00:39:27;11.07;;;5.37;;
9256;SDS011;4665;51.368;6.782;2023-04-25T00:41:52;13.40;;;6.30;;
9256;SDS011;4665;51.368;6.782;2023-04-25T00:44:19;9.20;;;5.13;;
9256;SDS011;4665;51.368;6.782;2023-04-25T00:46:46;11.23;;;6.40;;
9256;SDS011;4665;51.368;6.782;2023-04-25T00:49:12;13.43;;;5.50;;
9256;SDS011;4665;51.368;6.782;2023-04-25T00:51:40;9.57;;;5.17;;
9256;SDS011;4665;51.368;6.782;2023-04-25T00:54:06;16.90;;;6.57;;
9256;SDS011;4665;51.368;6.782;2023-04-25T00:56:32;14.17;;;6.47;;
9256;SDS011;4665;51.368;6.782;2023-04-25T00:58:57;13.87;;;6.70;;
9256;SDS011;4665;51.368;6.782;2023-04-25T01:01:23;10.00;;;6.43;;
9256;SDS011;4665;51.368;6.782;2023-04-25T01:03:49;10.20;;;5.47;;
9256;SDS011;4665;51.368;6.782;2023-04-25T01:06:17;8.80;;;5.40;;
9256;SDS011;4665;51.368;6.782;2023-04-25T01:08:42;7.07;;;4.43;;
9256;SDS011;4665;51.368;6.782;2023-04-25T01:11:08;9.33;;;5.63;;
9256;SDS011;4665;51.368;6.782;2023-04-25T01:13:34;9.03;;;4.57;;
9256;SDS011;4665;51.368;6.782;2023-04-25T01:16:00;12.20;;;5.93;;
9256;SDS011;4665;51.368;6.782;2023-04-25T01:18:26;10.60;;;5.70;;
9256;SDS011;4665;51.368;6.782;2023-04-25T01:20:52;11.13;;;6.80;;
9256;SDS011;4665;51.368;6.782;2023-04-25T01:23:18;13.23;;;7.07;;
9256;SDS011;4665;51.368;6.782;2023-04-25T01:25:44;11.73;;;6.07;;
9256;SDS011;4665;51.368;6.782;2023-04-25T01:28:10;7.27;;;5.03;;
9256;SDS011;4665;51.368;6.782;2023-04-25T01:30:36;9.53;;;4.60;;
9256;SDS011;4665;51.368;6.782;2023-04-25T01:33:03;7.63;;;4.87;;
9256;SDS011;4665;51.368;6.782;2023-04-25T01:35:29;11.93;;;5.90;;
9256;SDS011;4665;51.368;6.782;2023-04-25T01:37:55;11.23;;;5.77;;
9256;SDS011;4665;51.368;6.782;2023-04-25T01:40:20;9.67;;;5.10;;
9256;SDS011;4665;51.368;6.782;2023-04-25T01:42:47;8.87;;;5.47;;
9256;SDS011;4665;51.368;6.782;2023-04-25T01:45:14;7.37;;;5.07;;
9256;SDS011;4665;51.368;6.782;2023-04-25T01:47:40;7.10;;;4.97;;
9256;SDS011;4665;51.368;6.782;2023-04-25T01:50:07;7.00;;;4.67;;
9256;SDS011;4665;51.368;6.782;2023-04-25T01:52:33;7.83;;;4.37;;
9256;SDS011;4665;51.368;6.782;2023-04-25T01:55:00;5.93;;;4.13;;
9256;SDS011;4665;51.368;6.782;2023-04-25T01:57:26;6.50;;;4.53;;
9256;SDS011;4665;51.368;6.782;2023-04-25T01:59:53;7.77;;;4.23;;
9256;SDS011;4665;51.368;6.782;2023-04-25T02:02:23;8.40;;;4.40;;
9256;SDS011;4665;51.368;6.782;2023-04-25T02:04:49;8.20;;;4.43;;
9256;SDS011;4665;51.368;6.782;2023-04-25T02:07:14;8.50;;;4.27;;
9256;SDS011;4665;51.368;6.782;2023-04-25T02:09:40;8.23;;;3.67;;
9256;SDS011;4665;51.368;6.782;2023-04-25T02:12:07;8.20;;;3.90;;
9256;SDS011;4665;51.368;6.782;2023-04-25T02:14:33;6.03;;;3.77;;
9256;SDS011;4665;51.368;6.782;2023-04-25T02:16:59;5.57;;;4.10;;
9256;SDS011;4665;51.368;6.782;2023-04-25T02:19:24;8.13;;;3.73;;
9256;SDS011;4665;51.368;6.782;2023-04-25T02:21:50;7.80;;;4.30;;
9256;SDS011;4665;51.368;6.782;2023-04-25T02:24:15;7.70;;;4.10;;
9256;SDS011;4665;51.368;6.782;2023-04-25T02:26:41;7.33;;;4.10;;
9256;SDS011;4665;51.368;6.782;2023-04-25T02:29:06;7.20;;;3.80;;
9256;SDS011;4665;51.368;6.782;2023-04-25T02:31:32;8.97;;;4.07;;
9256;SDS011;4665;51.368;6.782;2023-04-25T02:33:57;11.00;;;4.30;;
9256;SDS011;4665;51.368;6.782;2023-04-25T02:36:22;7.67;;;3.50;;
9256;SDS011;4665;51.368;6.782;2023-04-25T02:38:48;6.07;;;4.00;;
9256;SDS011;4665;51.368;6.782;2023-04-25T02:41:14;9.50;;;4.07;;
9256;SDS011;4665;51.368;6.782;2023-04-25T02:43:39;7.43;;;4.13;;
9256;SDS011;4665;51.368;6.782;2023-04-25T02:46:05;6.43;;;3.50;;
9256;SDS011;4665;51.368;6.782;2023-04-25T02:48:30;10.27;;;4.30;;
9256;SDS011;4665;51.368;6.782;2023-04-25T02:50:55;8.43;;;4.40;;
9256;SDS011;4665;51.368;6.782;2023-04-25T02:53:21;10.53;;;4.27;;
9256;SDS011;4665;51.368;6.782;2023-04-25T02:55:46;9.20;;;4.03;;
9256;SDS011;4665;51.368;6.782;2023-04-25T02:58:11;8.53;;;3.80;;
9256;SDS011;4665;51.368;6.782;2023-04-25T03:00:37;11.83;;;3.90;;
9256;SDS011;4665;51.368;6.782;2023-04-25T03:03:02;8.00;;;4.00;;
9256;SDS011;4665;51.368;6.782;2023-04-25T03:05:28;9.33;;;4.33;;
9256;SDS011;4665;51.368;6.782;2023-04-25T03:07:53;6.73;;;3.70;;
9256;SDS011;4665;51.368;6.782;2023-04-25T03:10:18;6.77;;;3.63;;
9256;SDS011;4665;51.368;6.782;2023-04-25T03:12:44;8.80;;;3.73;;
9256;SDS011;4665;51.368;6.782;2023-04-25T03:15:09;7.53;;;3.50;;
9256;SDS011;4665;51.368;6.782;2023-04-25T03:17:35;8.37;;;3.63;;
9256;SDS011;4665;51.368;6.782;2023-04-25T03:20:00;11.67;;;4.47;;
9256;SDS011;4665;51.368;6.782;2023-04-25T03:22:26;8.83;;;4.13;;
9256;SDS011;4665;51.368;6.782;2023-04-25T03:24:51;7.57;;;3.97;;
9256;SDS011;4665;51.368;6.782;2023-04-25T03:27:17;7.33;;;3.43;;
9256;SDS011;4665;51.368;6.782;2023-04-25T03:29:42;8.60;;;4.30;;
9256;SDS011;4665;51.368;6.782;2023-04-25T03:32:08;10.33;;;4.13;;
9256;SDS011;4665;51.368;6.782;2023-04-25T03:34:34;7.87;;;4.30;;
9256;SDS011;4665;51.368;6.782;2023-04-25T03:36:59;10.67;;;4.60;;
9256;SDS011;4665;51.368;6.782;2023-04-25T03:39:25;10.57;;;3.93;;
9256;SDS011;4665;51.368;6.782;2023-04-25T03:41:50;8.93;;;4.10;;
9256;SDS011;4665;51.368;6.782;2023-04-25T03:44:16;12.23;;;4.37;;
9256;SDS011;4665;51.368;6.782;2023-04-25T03:46:41;11.87;;;4.80;;
9256;SDS011;4665;51.368;6.782;2023-04-25T03:49:07;7.43;;;4.13;;
9256;SDS011;4665;51.368;6.782;2023-04-25T03:51:32;11.40;;;5.00;;
9256;SDS011;4665;51.368;6.782;2023-04-25T03:53:57;11.67;;;4.60;;
9256;SDS011;4665;51.368;6.782;2023-04-25T03:56:23;8.33;;;4.10;;
9256;SDS011;4665;51.368;6.782;2023-04-25T03:58:48;8.97;;;4.93;;
9256;SDS011;4665;51.368;6.782;2023-04-25T04:01:14;10.83;;;4.63;;
9256;SDS011;4665;51.368;6.782;2023-04-25T04:03:39;8.80;;;4.30;;
9256;SDS011;4665;51.368;6.782;2023-04-25T04:06:05;13.53;;;4.83;;
9256;SDS011;4665;51.368;6.782;2023-04-25T04:08:31;10.90;;;4.00;;
9256;SDS011;4665;51.368;6.782;2023-04-25T04:10:58;14.33;;;4.57;;
9256;SDS011;4665;51.368;6.782;2023-04-25T04:13:27;11.53;;;4.17;;
9256;SDS011;4665;51.368;6.782;2023-04-25T04:15:53;7.80;;;4.13;;
9256;SDS011;4665;51.368;6.782;2023-04-25T04:18:19;11.30;;;4.60;;
9256;SDS011;4665;51.368;6.782;2023-04-25T04:20:44;8.50;;;4.37;;
9256;SDS011;4665;51.368;6.782;2023-04-25T04:23:10;10.17;;;4.90;;
9256;SDS011;4665;51.368;6.782;2023-04-25T04:25:35;8.30;;;4.73;;
9256;SDS011;4665;51.368;6.782;2023-04-25T04:28:01;8.60;;;4.80;;
9256;SDS011;4665;51.368;6.782;2023-04-25T04:30:27;9.90;;;4.60;;
9256;SDS011;4665;51.368;6.782;2023-04-25T04:32:56;8.53;;;4.70;;
9256;SDS011;4665;51.368;6.782;2023-04-25T04:35:22;10.00;;;4.20;;
9256;SDS011;4665;51.368;6.782;2023-04-25T04:37:48;12.07;;;4.63;;
9256;SDS011;4665;51.368;6.782;2023-04-25T04:40:14;8.53;;;5.17;;
9256;SDS011;4665;51.368;6.782;2023-04-25T04:42:43;10.23;;;4.60;;
9256;SDS011;4665;51.368;6.782;2023-04-25T04:45:10;8.70;;;4.60;;
9256;SDS011;4665;51.368;6.782;2023-04-25T04:47:37;11.73;;;4.70;;
9256;SDS011;4665;51.368;6.782;2023-04-25T04:50:04;10.97;;;4.83;;
9256;SDS011;4665;51.368;6.782;2023-04-25T04:52:36;8.53;;;4.57;;
9256;SDS011;4665;51.368;6.782;2023-04-25T04:55:02;13.10;;;5.00;;
9256;SDS011;4665;51.368;6.782;2023-04-25T04:57:29;12.73;;;4.90;;
9256;SDS011;4665;51.368;6.782;2023-04-25T04:59:55;5.77;;;3.90;;
9256;SDS011;4665;51.368;6.782;2023-04-25T05:02:21;10.23;;;4.80;;
9256;SDS011;4665;51.368;6.782;2023-04-25T05:04:46;18.00;;;5.13;;
9256;SDS011;4665;51.368;6.782;2023-04-25T05:07:12;9.37;;;4.40;;
9256;SDS011;4665;51.368;6.782;2023-04-25T05:09:37;11.50;;;4.87;;
9256;SDS011;4665;51.368;6.782;2023-04-25T05:12:03;16.50;;;5.07;;
9256;SDS011;4665;51.368;6.782;2023-04-25T05:14:29;10.93;;;4.83;;
9256;SDS011;4665;51.368;6.782;2023-04-25T05:16:54;15.57;;;5.03;;
9256;SDS011;4665;51.368;6.782;2023-04-25T05:19:20;12.07;;;4.90;;
9256;SDS011;4665;51.368;6.782;2023-04-25T05:21:45;8.53;;;4.77;;
9256;SDS011;4665;51.368;6.782;2023-04-25T05:24:10;8.70;;;4.63;;
9256;SDS011;4665;51.368;6.782;2023-04-25T05:26:37;11.10;;;4.60;;
9256;SDS011;4665;51.368;6.782;2023-04-25T05:29:02;10.07;;;4.63;;
9256;SDS011;4665;51.368;6.782;2023-04-25T05:31:28;11.53;;;5.13;;
9256;SDS011;4665;51.368;6.782;2023-04-25T05:33:53;11.80;;;4.93;;
9256;SDS011;4665;51.368;6.782;2023-04-25T05:36:19;8.23;;;3.97;;
9256;SDS011;4665;51.368;6.782;2023-04-25T05:38:44;15.97;;;4.83;;
9256;SDS011;4665;51.368;6.782;2023-04-25T05:41:10;14.87;;;4.63;;
9256;SDS011;4665;51.368;6.782;2023-04-25T05:43:35;11.50;;;4.23;;
9256;SDS011;4665;51.368;6.782;2023-04-25T05:46:01;13.50;;;4.30;;
9256;SDS011;4665;51.368;6.782;2023-04-25T05:48:26;8.53;;;4.17;;
9256;SDS011;4665;51.368;6.782;2023-04-25T05:50:51;9.00;;;4.27;;
9256;SDS011;4665;51.368;6.782;2023-04-25T05:53:17;11.97;;;4.77;;
9256;SDS011;4665;51.368;6.782;2023-04-25T05:55:43;12.43;;;4.90;;
9256;SDS011;4665;51.368;6.782;2023-04-25T05:58:08;11.93;;;4.80;;
9256;SDS011;4665;51.368;6.782;2023-04-25T06:00:34;7.90;;;4.40;;
9256;SDS011;4665;51.368;6.782;2023-04-25T06:02:59;14.63;;;4.80;;
9256;SDS011;4665;51.368;6.782;2023-04-25T06:05:26;15.20;;;4.30;;
9256;SDS011;4665;51.368;6.782;2023-04-25T06:07:51;10.27;;;4.90;;
9256;SDS011;4665;51.368;6.782;2023-04-25T06:10:17;10.47;;;4.03;;
9256;SDS011;4665;51.368;6.782;2023-04-25T06:12:42;10.87;;;4.77;;
9256;SDS011;4665;51.368;6.782;2023-04-25T06:15:08;9.43;;;4.10;;
9256;SDS011;4665;51.368;6.782;2023-04-25T06:17:33;10.47;;;4.00;;
9256;SDS011;4665;51.368;6.782;2023-04-25T06:19:59;12.83;;;4.37;;
9256;SDS011;4665;51.368;6.782;2023-04-25T06:22:24;8.93;;;4.40;;
9256;SDS011;4665;51.368;6.782;2023-04-25T06:24:49;7.63;;;4.10;;
9256;SDS011;4665;51.368;6.782;2023-04-25T06:27:15;8.53;;;4.57;;
9256;SDS011;4665;51.368;6.782;2023-04-25T06:29:40;9.90;;;4.60;;
9256;SDS011;4665;51.368;6.782;2023-04-25T06:32:05;10.33;;;4.13;;
9256;SDS011;4665;51.368;6.782;2023-04-25T06:34:31;9.50;;;4.47;;
9256;SDS011;4665;51.368;6.782;2023-04-25T06:36:56;9.17;;;3.77;;
9256;SDS011;4665;51.368;6.782;2023-04-25T06:39:22;10.17;;;4.30;;
9256;SDS011;4665;51.368;6.782;2023-04-25T06:41:48;10.73;;;4.23;;
9256;SDS011;4665;51.368;6.782;2023-04-25T06:44:14;9.90;;;3.87;;
9256;SDS011;4665;51.368;6.782;2023-04-25T06:46:40;13.37;;;3.93;;
9256;SDS011;4665;51.368;6.782;2023-04-25T06:49:05;9.77;;;4.23;;
9256;SDS011;4665;51.368;6.782;2023-04-25T06:51:31;8.37;;;3.77;;
9256;SDS011;4665;51.368;6.782;2023-04-25T06:53:56;11.10;;;4.07;;
9256;SDS011;4665;51.368;6.782;2023-04-25T06:56:21;8.97;;;3.77;;
9256;SDS011;4665;51.368;6.782;2023-04-25T06:58:48;12.73;;;4.10;;
9256;SDS011;4665;51.368;6.782;2023-04-25T07:01:13;10.27;;;3.93;;
9256;SDS011;4665;51.368;6.782;2023-04-25T07:03:39;9.13;;;3.80;;
9256;SDS011;4665;51.368;6.782;2023-04-25T07:06:04;10.77;;;4.80;;
9256;SDS011;4665;51.368;6.782;2023-04-25T07:08:30;11.03;;;4.30;;
9256;SDS011;4665;51.368;6.782;2023-04-25T07:10:55;11.70;;;4.37;;
9256;SDS011;4665;51.368;6.782;2023-04-25T07:13:21;10.90;;;4.40;;
9256;SDS011;4665;51.368;6.782;2023-04-25T07:15:46;12.50;;;4.90;;
9256;SDS011;4665;51.368;6.782;2023-04-25T07:18:13;10.03;;;3.93;;
9256;SDS011;4665;51.368;6.782;2023-04-25T07:20:38;8.80;;;3.57;;
9256;SDS011;4665;51.368;6.782;2023-04-25T07:23:04;11.87;;;3.80;;
9256;SDS011;4665;51.368;6.782;2023-04-25T07:25:30;9.50;;;3.87;;
9256;SDS011;4665;51.368;6.782;2023-04-25T07:27:55;8.27;;;4.47;;
9256;SDS011;4665;51.368;6.782;2023-04-25T07:30:21;7.57;;;4.20;;
9256;SDS011;4665;51.368;6.782;2023-04-25T07:32:47;8.53;;;3.17;;
9256;SDS011;4665;51.368;6.782;2023-04-25T07:35:13;12.63;;;3.73;;
9256;SDS011;4665;51.368;6.782;2023-04-25T07:37:38;11.10;;;3.83;;
9256;SDS011;4665;51.368;6.782;2023-04-25T07:40:04;9.53;;;3.67;;
9256;SDS011;4665;51.368;6.782;2023-04-25T07:42:30;11.77;;;4.53;;
9256;SDS011;4665;51.368;6.782;2023-04-25T07:44:55;9.03;;;4.87;;
9256;SDS011;4665;51.368;6.782;2023-04-25T07:47:21;18.80;;;5.50;;
9256;SDS011;4665;51.368;6.782;2023-04-25T07:49:46;10.67;;;4.47;;
9256;SDS011;4665;51.368;6.782;2023-04-25T07:52:12;9.70;;;4.10;;
9256;SDS011;4665;51.368;6.782;2023-04-25T07:54:37;11.63;;;4.50;;
9256;SDS011;4665;51.368;6.782;2023-04-25T07:57:03;13.57;;;4.60;;
9256;SDS011;4665;51.368;6.782;2023-04-25T07:59:28;11.30;;;4.30;;
9256;SDS011;4665;51.368;6.782;2023-04-25T08:01:54;12.73;;;4.83;;
9256;SDS011;4665;51.368;6.782;2023-04-25T08:04:20;9.83;;;4.50;;
9256;SDS011;4665;51.368;6.782;2023-04-25T08:06:45;15.03;;;5.73;;
9256;SDS011;4665;51.368;6.782;2023-04-25T08:09:11;17.57;;;5.07;;
9256;SDS011;4665;51.368;6.782;2023-04-25T08:11:36;14.50;;;5.00;;
9256;SDS011;4665;51.368;6.782;2023-04-25T08:14:02;11.20;;;4.30;;
9256;SDS011;4665;51.368;6.782;2023-04-25T08:16:27;10.67;;;3.87;;
9256;SDS011;4665;51.368;6.782;2023-04-25T08:18:53;7.27;;;3.07;;
9256;SDS011;4665;51.368;6.782;2023-04-25T08:21:19;6.27;;;2.73;;
9256;SDS011;4665;51.368;6.782;2023-04-25T08:23:45;7.00;;;2.80;;
9256;SDS011;4665;51.368;6.782;2023-04-25T08:26:11;9.90;;;3.00;;
9256;SDS011;4665;51.368;6.782;2023-04-25T08:28:36;9.47;;;3.43;;
9256;SDS011;4665;51.368;6.782;2023-04-25T08:31:01;11.43;;;4.20;;
9256;SDS011;4665;51.368;6.782;2023-04-25T08:33:27;7.80;;;3.70;;
9256;SDS011;4665;51.368;6.782;2023-04-25T08:35:52;10.27;;;3.70;;
9256;SDS011;4665;51.368;6.782;2023-04-25T08:38:18;6.93;;;3.50;;
9256;SDS011;4665;51.368;6.782;2023-04-25T08:40:43;8.10;;;3.33;;
9256;SDS011;4665;51.368;6.782;2023-04-25T08:43:09;9.03;;;3.57;;
9256;SDS011;4665;51.368;6.782;2023-04-25T08:45:41;6.37;;;2.73;;
9256;SDS011;4665;51.368;6.782;2023-04-25T08:48:07;6.77;;;3.03;;
9256;SDS011;4665;51.368;6.782;2023-04-25T08:50:39;10.40;;;3.13;;
9256;SDS011;4665;51.368;6.782;2023-04-25T08:53:10;10.23;;;2.67;;
9256;SDS011;4665;51.368;6.782;2023-04-25T08:55:43;7.53;;;2.90;;
9256;SDS011;4665;51.368;6.782;2023-04-25T08:58:09;7.93;;;2.57;;
9256;SDS011;4665;51.368;6.782;2023-04-25T09:00:36;7.83;;;3.27;;
9256;SDS011;4665;51.368;6.782;2023-04-25T09:03:01;5.97;;;2.63;;
9256;SDS011;4665;51.368;6.782;2023-04-25T09:05:28;8.43;;;2.80;;
9256;SDS011;4665;51.368;6.782;2023-04-25T09:07:53;5.33;;;2.50;;
9256;SDS011;4665;51.368;6.782;2023-04-25T09:10:19;8.97;;;2.70;;
9256;SDS011;4665;51.368;6.782;2023-04-25T09:12:44;6.03;;;2.50;;
9256;SDS011;4665;51.368;6.782;2023-04-25T09:15:11;5.90;;;2.23;;
9256;SDS011;4665;51.368;6.782;2023-04-25T09:17:37;6.37;;;2.50;;
9256;SDS011;4665;51.368;6.782;2023-04-25T09:20:09;8.13;;;2.50;;
9256;SDS011;4665;51.368;6.782;2023-04-25T09:22:37;6.57;;;2.30;;
9256;SDS011;4665;51.368;6.782;2023-04-25T09:25:10;8.97;;;2.20;;
9256;SDS011;4665;51.368;6.782;2023-04-25T09:27:36;6.60;;;2.40;;
9256;SDS011;4665;51.368;6.782;2023-04-25T09:30:15;7.03;;;2.37;;
9256;SDS011;4665;51.368;6.782;2023-04-25T09:32:42;4.63;;;2.03;;
9256;SDS011;4665;51.368;6.782;2023-04-25T09:35:08;5.43;;;1.80;;
9256;SDS011;4665;51.368;6.782;2023-04-25T09:37:34;6.40;;;2.33;;
9256;SDS011;4665;51.368;6.782;2023-04-25T09:40:00;3.13;;;2.07;;
9256;SDS011;4665;51.368;6.782;2023-04-25T09:42:30;4.77;;;2.10;;
9256;SDS011;4665;51.368;6.782;2023-04-25T09:44:57;3.63;;;2.10;;
9256;SDS011;4665;51.368;6.782;2023-04-25T09:47:24;4.97;;;2.10;;
9256;SDS011;4665;51.368;6.782;2023-04-25T09:49:51;2.80;;;1.67;;
9256;SDS011;4665;51.368;6.782;2023-04-25T09:52:18;4.87;;;2.03;;
9256;SDS011;4665;51.368;6.782;2023-04-25T09:54:45;3.00;;;1.60;;
9256;SDS011;4665;51.368;6.782;2023-04-25T09:57:12;4.27;;;2.07;;
9256;SDS011;4665;51.368;6.782;2023-04-25T09:59:39;2.83;;;1.73;;
9256;SDS011;4665;51.368;6.782;2023-04-25T10:02:08;5.37;;;1.90;;
9256;SDS011;4665;51.368;6.782;2023-04-25T10:04:35;5.63;;;2.13;;
9256;SDS011;4665;51.368;6.782;2023-04-25T10:07:03;5.57;;;2.10;;
9256;SDS011;4665;51.368;6.782;2023-04-25T10:09:31;3.17;;;1.67;;
9256;SDS011;4665;51.368;6.782;2023-04-25T10:12:00;4.57;;;2.03;;
9256;SDS011;4665;51.368;6.782;2023-04-25T10:14:26;4.40;;;1.67;;
9256;SDS011;4665;51.368;6.782;2023-04-25T10:17:01;1.77;;;1.40;;
9256;SDS011;4665;51.368;6.782;2023-04-25T10:19:26;4.83;;;2.00;;
9256;SDS011;4665;51.368;6.782;2023-04-25T10:24:21;3.20;;;1.30;;
9256;SDS011;4665;51.368;6.782;2023-04-25T10:26:47;7.30;;;1.70;;
9256;SDS011;4665;51.368;6.782;2023-04-25T10:29:14;3.13;;;1.77;;
9256;SDS011;4665;51.368;6.782;2023-04-25T10:31:47;4.93;;;1.83;;
9256;SDS011;4665;51.368;6.782;2023-04-25T10:34:13;2.90;;;1.60;;
9256;SDS011;4665;51.368;6.782;2023-04-25T10:36:38;5.47;;;1.80;;
9256;SDS011;4665;51.368;6.782;2023-04-25T10:39:05;6.10;;;2.27;;
9256;SDS011;4665;51.368;6.782;2023-04-25T10:41:32;3.63;;;1.90;;
9256;SDS011;4665;51.368;6.782;2023-04-25T10:44:12;4.10;;;1.80;;
9256;SDS011;4665;51.368;6.782;2023-04-25T10:46:38;2.37;;;1.50;;
9256;SDS011;4665;51.368;6.782;2023-04-25T10:49:03;4.50;;;1.90;;
9256;SDS011;4665;51.368;6.782;2023-04-25T10:51:29;3.70;;;1.83;;
9256;SDS011;4665;51.368;6.782;2023-04-25T10:56:29;5.87;;;2.20;;
9256;SDS011;4665;51.368;6.782;2023-04-25T11:01:35;3.50;;;1.53;;
9256;SDS011;4665;51.368;6.782;2023-04-25T11:04:03;5.10;;;1.50;;
9256;SDS011;4665;51.368;6.782;2023-04-25T11:06:35;5.93;;;2.03;;
9256;SDS011;4665;51.368;6.782;2023-04-25T11:09:12;3.03;;;2.00;;
9256;SDS011;4665;51.368;6.782;2023-04-25T11:11:38;5.67;;;2.17;;
9256;SDS011;4665;51.368;6.782;2023-04-25T11:14:04;3.83;;;1.70;;
9256;SDS011;4665;51.368;6.782;2023-04-25T11:16:29;3.57;;;2.03;;
9256;SDS011;4665;51.368;6.782;2023-04-25T11:18:56;6.43;;;2.30;;
9256;SDS011;4665;51.368;6.782;2023-04-25T11:21:22;4.80;;;2.50;;
9256;SDS011;4665;51.368;6.782;2023-04-25T11:23:48;4.50;;;2.47;;
9256;SDS011;4665;51.368;6.782;2023-04-25T11:26:13;4.67;;;2.63;;
9256;SDS011;4665;51.368;6.782;2023-04-25T11:28:40;7.40;;;2.73;;
9256;SDS011;4665;51.368;6.782;2023-04-25T11:31:08;6.53;;;3.20;;
9256;SDS011;4665;51.368;6.782;2023-04-25T11:33:34;6.87;;;2.90;;
9256;SDS011;4665;51.368;6.782;2023-04-25T11:36:01;6.27;;;2.67;;
9256;SDS011;4665;51.368;6.782;2023-04-25T11:38:26;7.43;;;2.90;;
9256;SDS011;4665;51.368;6.782;2023-04-25T11:40:52;7.20;;;2.77;;
9256;SDS011;4665;51.368;6.782;2023-04-25T11:43:21;8.83;;;4.20;;
9256;SDS011;4665;51.368;6.782;2023-04-25T11:45:48;4.77;;;2.20;;
9256;SDS011;4665;51.368;6.782;2023-04-25T11:48:14;7.87;;;2.97;;
9256;SDS011;4665;51.368;6.782;2023-04-25T11:50:40;6.53;;;3.13;;
9256;SDS011;4665;51.368;6.782;2023-04-25T11:53:05;10.07;;;3.67;;
9256;SDS011;4665;51.368;6.782;2023-04-25T11:55:31;8.30;;;3.10;;
9256;SDS011;4665;51.368;6.782;2023-04-25T11:57:59;6.30;;;2.87;;
9256;SDS011;4665;51.368;6.782;2023-04-25T12:00:25;7.37;;;2.80;;
9256;SDS011;4665;51.368;6.782;2023-04-25T12:02:52;5.67;;;2.10;;
9256;SDS011;4665;51.368;6.782;2023-04-25T12:05:19;5.07;;;2.87;;
9256;SDS011;4665;51.368;6.782;2023-04-25T12:07:45;11.67;;;4.27;;
9256;SDS011;4665;51.368;6.782;2023-04-25T12:10:12;9.93;;;3.80;;
9256;SDS011;4665;51.368;6.782;2023-04-25T12:12:42;6.60;;;3.40;;
9256;SDS011;4665;51.368;6.782;2023-04-25T12:15:14;6.40;;;2.67;;
9256;SDS011;4665;51.368;6.782;2023-04-25T12:17:48;6.03;;;2.87;;
9256;SDS011;4665;51.368;6.782;2023-04-25T12:20:18;4.60;;;2.33;;
9256;SDS011;4665;51.368;6.782;2023-04-25T12:22:48;4.00;;;2.20;;
9256;SDS011;4665;51.368;6.782;2023-04-25T12:25:17;6.17;;;2.57;;
9256;SDS011;4665;51.368;6.782;2023-04-25T12:28:14;3.60;;;2.13;;
9256;SDS011;4665;51.368;6.782;2023-04-25T12:33:24;4.33;;;2.30;;
9256;SDS011;4665;51.368;6.782;2023-04-25T12:35:52;2.93;;;1.97;;
9256;SDS011;4665;51.368;6.782;2023-04-25T12:38:24;4.50;;;1.90;;
9256;SDS011;4665;51.368;6.782;2023-04-25T12:40:52;4.10;;;2.37;;
9256;SDS011;4665;51.368;6.782;2023-04-25T12:43:17;6.60;;;2.30;;
9256;SDS011;4665;51.368;6.782;2023-04-25T12:45:43;2.70;;;1.90;;
9256;SDS011;4665;51.368;6.782;2023-04-25T12:48:16;2.67;;;1.80;;
9256;SDS011;4665;51.368;6.782;2023-04-25T12:50:41;5.30;;;1.90;;
9256;SDS011;4665;51.368;6.782;2023-04-25T12:53:07;3.37;;;1.97;;
9256;SDS011;4665;51.368;6.782;2023-04-25T12:55:33;2.80;;;1.80;;
9256;SDS011;4665;51.368;6.782;2023-04-25T12:57:58;2.17;;;1.70;;
9256;SDS011;4665;51.368;6.782;2023-04-25T13:00:24;7.10;;;2.10;;
9256;SDS011;4665;51.368;6.782;2023-04-25T13:02:49;3.57;;;1.70;;
9256;SDS011;4665;51.368;6.782;2023-04-25T13:05:15;2.30;;;1.97;;
9256;SDS011;4665;51.368;6.782;2023-04-25T13:07:40;6.30;;;1.93;;
9256;SDS011;4665;51.368;6.782;2023-04-25T13:10:06;7.27;;;2.07;;
9256;SDS011;4665;51.368;6.782;2023-04-25T13:12:32;6.77;;;2.03;;
9256;SDS011;4665;51.368;6.782;2023-04-25T13:17:57;6.43;;;2.10;;
9256;SDS011;4665;51.368;6.782;2023-04-25T13:20:22;2.23;;;1.70;;
9256;SDS011;4665;51.368;6.782;2023-04-25T13:22:48;5.07;;;2.33;;
9256;SDS011;4665;51.368;6.782;2023-04-25T13:25:13;6.53;;;2.30;;
9256;SDS011;4665;51.368;6.782;2023-04-25T13:27:39;5.60;;;3.30;;
9256;SDS011;4665;51.368;6.782;2023-04-25T13:30:05;7.73;;;1.90;;
9256;SDS011;4665;51.368;6.782;2023-04-25T13:32:34;4.17;;;1.97;;
9256;SDS011;4665;51.368;6.782;2023-04-25T13:35:04;5.20;;;2.10;;
9256;SDS011;4665;51.368;6.782;2023-04-25T13:37:30;6.27;;;2.03;;
9256;SDS011;4665;51.368;6.782;2023-04-25T13:39:58;2.00;;;1.50;;
9256;SDS011;4665;51.368;6.782;2023-04-25T13:42:25;4.27;;;2.30;;
9256;SDS011;4665;51.368;6.782;2023-04-25T13:44:51;4.07;;;2.00;;
9256;SDS011;4665;51.368;6.782;2023-04-25T13:47:16;4.20;;;2.47;;
9256;SDS011;4665;51.368;6.782;2023-04-25T13:49:42;6.17;;;2.43;;
9256;SDS011;4665;51.368;6.782;2023-04-25T13:52:07;5.60;;;2.20;;
9256;SDS011;4665;51.368;6.782;2023-04-25T13:54:32;4.77;;;2.17;;
9256;SDS011;4665;51.368;6.782;2023-04-25T13:56:58;4.50;;;1.90;;
9256;SDS011;4665;51.368;6.782;2023-04-25T13:59:24;5.90;;;1.67;;
9256;SDS011;4665;51.368;6.782;2023-04-25T14:01:53;2.00;;;1.53;;
9256;SDS011;4665;51.368;6.782;2023-04-25T14:04:18;4.20;;;1.63;;
9256;SDS011;4665;51.368;6.782;2023-04-25T14:06:44;3.70;;;1.73;;
9256;SDS011;4665;51.368;6.782;2023-04-25T14:09:09;3.33;;;1.73;;
9256;SDS011;4665;51.368;6.782;2023-04-25T14:11:38;3.67;;;1.80;;
9256;SDS011;4665;51.368;6.782;2023-04-25T14:14:04;4.43;;;1.70;;
9256;SDS011;4665;51.368;6.782;2023-04-25T14:16:30;3.47;;;1.40;;
9256;SDS011;4665;51.368;6.782;2023-04-25T14:18:57;2.70;;;1.40;;
9256;SDS011;4665;51.368;6.782;2023-04-25T14:21:23;3.70;;;1.60;;
9256;SDS011;4665;51.368;6.782;2023-04-25T14:23:48;3.47;;;1.97;;
9256;SDS011;4665;51.368;6.782;2023-04-25T14:26:14;3.97;;;1.57;;
9256;SDS011;4665;51.368;6.782;2023-04-25T14:28:39;2.73;;;1.40;;
9256;SDS011;4665;51.368;6.782;2023-04-25T14:31:04;2.43;;;1.60;;
9256;SDS011;4665;51.368;6.782;2023-04-25T14:33:30;3.60;;;1.93;;
9256;SDS011;4665;51.368;6.782;2023-04-25T14:35:55;4.17;;;1.60;;
9256;SDS011;4665;51.368;6.782;2023-04-25T14:38:21;3.07;;;1.60;;
9256;SDS011;4665;51.368;6.782;2023-04-25T14:40:48;2.87;;;1.43;;
9256;SDS011;4665;51.368;6.782;2023-04-25T14:43:14;1.43;;;1.30;;
9256;SDS011;4665;51.368;6.782;2023-04-25T14:45:39;3.23;;;1.80;;
9256;SDS011;4665;51.368;6.782;2023-04-25T14:48:05;4.50;;;1.73;;
9256;SDS011;4665;51.368;6.782;2023-04-25T14:50:31;4.57;;;1.60;;
9256;SDS011;4665;51.368;6.782;2023-04-25T14:52:57;2.40;;;1.70;;
9256;SDS011;4665;51.368;6.782;2023-04-25T14:55:25;5.50;;;2.13;;
9256;SDS011;4665;51.368;6.782;2023-04-25T14:57:51;4.47;;;3.07;;
9256;SDS011;4665;51.368;6.782;2023-04-25T15:00:18;10.10;;;3.73;;
9256;SDS011;4665;51.368;6.782;2023-04-25T15:02:45;7.03;;;4.63;;
9256;SDS011;4665;51.368;6.782;2023-04-25T15:05:11;9.37;;;4.90;;
9256;SDS011;4665;51.368;6.782;2023-04-25T15:07:38;8.07;;;3.43;;
9256;SDS011;4665;51.368;6.782;2023-04-25T15:10:05;4.97;;;3.13;;
9256;SDS011;4665;51.368;6.782;2023-04-25T15:12:36;5.07;;;2.10;;
9256;SDS011;4665;51.368;6.782;2023-04-25T15:15:02;2.50;;;1.80;;
9256;SDS011;4665;51.368;6.782;2023-04-25T15:17:27;3.20;;;1.80;;